Map

Track Data

SID SEASON NUMBER BASIN SUBBASIN NAME ISO_TIME NATURE LAT LON WMO_WIND WMO_PRES WMO_AGENCY TRACK_TYPE DIST2LAND LANDFALL IFLAG USA_AGENCY USA_ATCF_ID USA_LAT USA_LON USA_RECORD USA_STATUS USA_WIND USA_PRES USA_SSHS USA_R34_NE USA_R34_SE USA_R34_SW USA_R34_NW USA_R50_NE USA_R50_SE USA_R50_SW USA_R50_NW USA_R64_NE USA_R64_SE USA_R64_SW USA_R64_NW USA_POCI USA_ROCI USA_RMW USA_EYE TOKYO_LAT TOKYO_LON TOKYO_GRADE TOKYO_WIND TOKYO_PRES TOKYO_R50_DIR TOKYO_R50_LONG TOKYO_R50_SHORT TOKYO_R30_DIR TOKYO_R30_LONG TOKYO_R30_SHORT TOKYO_LAND CMA_LAT CMA_LON CMA_CAT CMA_WIND CMA_PRES HKO_LAT HKO_LON HKO_CAT HKO_WIND HKO_PRES NEWDELHI_LAT NEWDELHI_LON NEWDELHI_GRADE NEWDELHI_WIND NEWDELHI_PRES NEWDELHI_CI NEWDELHI_DP NEWDELHI_POCI REUNION_LAT REUNION_LON REUNION_TYPE REUNION_WIND REUNION_PRES REUNION_TNUM REUNION_CI REUNION_RMW REUNION_R34_NE REUNION_R34_SE REUNION_R34_SW REUNION_R34_NW REUNION_R50_NE REUNION_R50_SE REUNION_R50_SW REUNION_R50_NW REUNION_R64_NE REUNION_R64_SE REUNION_R64_SW REUNION_R64_NW BOM_LAT BOM_LON BOM_TYPE BOM_WIND BOM_PRES BOM_TNUM BOM_CI BOM_RMW BOM_R34_NE BOM_R34_SE BOM_R34_SW BOM_R34_NW BOM_R50_NE BOM_R50_SE BOM_R50_SW BOM_R50_NW BOM_R64_NE BOM_R64_SE BOM_R64_SW BOM_R64_NW BOM_ROCI BOM_POCI BOM_EYE BOM_POS_METHOD BOM_PRES_METHOD NADI_LAT NADI_LON NADI_CAT NADI_WIND NADI_PRES WELLINGTON_LAT WELLINGTON_LON WELLINGTON_WIND WELLINGTON_PRES DS824_LAT DS824_LON DS824_STAGE DS824_WIND DS824_PRES TD9636_LAT TD9636_LON TD9636_STAGE TD9636_WIND TD9636_PRES TD9635_LAT TD9635_LON TD9635_WIND TD9635_PRES TD9635_ROCI NEUMANN_LAT NEUMANN_LON NEUMANN_CLASS NEUMANN_WIND NEUMANN_PRES MLC_LAT MLC_LON MLC_CLASS MLC_WIND MLC_PRES USA_GUST BOM_GUST BOM_GUST_PER REUNION_GUST REUNION_GUST_PER USA_SEAHGT USA_SEARAD_NE USA_SEARAD_SE USA_SEARAD_SW USA_SEARAD_NW STORM_SPEED STORM_DIR
1868250N31323 1868 12 NA NA NOT_NAMED 1868-09-05 12:00:00 TS 31.0000 -37.1000 main 1979 1979 _____________O -1 31.0000 -37.1000 TS 35 4 299
1868250N31323 1868 12 NA NA NOT_NAMED 1868-09-05 15:00:00 TS 31.1001 -37.3124 main 1998 1998 _____________P -1 31.1001 -37.3124 TS 35 4 300
1868250N31323 1868 12 NA NA NOT_NAMED 1868-09-05 18:00:00 TS 31.2000 -37.5000 main 2018 2018 _____________O -1 31.2000 -37.5000 TS 35 4 305
1868250N31323 1868 12 NA NA NOT_NAMED 1868-09-05 21:00:00 TS 31.2999 -37.6501 main 2038 2038 _____________P -1 31.2999 -37.6501 TS 35 3 308
1868250N31323 1868 12 NA NA NOT_NAMED 1868-09-06 00:00:00 TS 31.4000 -37.8000 main 2048 2048 _____________O -1 31.4000 -37.8000 TS 35 4 304
1868250N31323 1868 12 NA NA NOT_NAMED 1868-09-06 03:00:00 TS 31.5000 -38.0000 main 2068 2068 _____________P -1 31.5000 -38.0000 TS 35 4 300
1868250N31323 1868 12 NA NA NOT_NAMED 1868-09-06 06:00:00 TS 31.6000 -38.2000 main 2088 2088 _____________O -1 31.6000 -38.2000 TS 35 4 304
1868250N31323 1868 12 NA NA NOT_NAMED 1868-09-06 09:00:00 TS 31.6999 -38.3501 main 2083 2068 _____________P -1 31.6999 -38.3501 TS 37 3 308
1868250N31323 1868 12 NA NA NOT_NAMED 1868-09-06 12:00:00 TS 31.8000 -38.5000 main 2068 2048 _____________O -1 31.8000 -38.5000 TS 40 4 304
1868250N31323 1868 12 NA NA NOT_NAMED 1868-09-06 15:00:00 TS 31.9000 -38.6925 main 2048 2029 _____________P -1 31.9000 -38.6925 TS 40 4 300
1868250N31323 1868 12 NA NA NOT_NAMED 1868-09-06 18:00:00 TS 32.0000 -38.9000 main 2029 2009 _____________O -1 32.0000 -38.9000 TS 40 4 300
1868250N31323 1868 12 NA NA NOT_NAMED 1868-09-06 21:00:00 TS 32.1000 -39.1000 main 2009 1990 _____________P -1 32.1000 -39.1000 TS 40 4 301
1868250N31323 1868 12 NA NA NOT_NAMED 1868-09-07 00:00:00 TS 32.2000 -39.3000 main 1990 1970 _____________O -1 32.2000 -39.3000 TS 40 4 300
1868250N31323 1868 12 NA NA NOT_NAMED 1868-09-07 03:00:00 TS 32.3000 -39.5075 main 1970 1951 _____________P -1 32.3000 -39.5075 TS 40 4 301
1868250N31323 1868 12 NA NA NOT_NAMED 1868-09-07 06:00:00 TS 32.4000 -39.7000 main 1951 1937 _____________O -1 32.4000 -39.7000 TS 40 4 305
1868250N31323 1868 12 NA NA NOT_NAMED 1868-09-07 09:00:00 TS 32.4999 -39.8501 main 1932 1917 _____________P -1 32.4999 -39.8501 TS 42 3 308
1868250N31323 1868 12 NA NA NOT_NAMED 1868-09-07 12:00:00 TS 32.6000 -40.0000 main 1917 1898 _____________O -1 32.6000 -40.0000 TS 45 4 305
1868250N31323 1868 12 NA NA NOT_NAMED 1868-09-07 15:00:00 TS 32.7075 -40.2000 main 1898 1879 _____________P -1 32.7075 -40.2000 TS 45 4 301
1868250N31323 1868 12 NA NA NOT_NAMED 1868-09-07 18:00:00 TS 32.8000 -40.4000 main 1879 1874 _____________O -1 32.8000 -40.4000 TS 45 3 295
1868250N31323 1868 12 NA NA NOT_NAMED 1868-09-07 21:00:00 TS 32.8500 -40.5576 main 1869 1855 _____________P -1 32.8500 -40.5576 TS 45 3 292
1868250N31323 1868 12 NA NA NOT_NAMED 1868-09-08 00:00:00 TS 32.9000 -40.7000 main 1855 1840 _____________O -1 32.9000 -40.7000 TS 45 3 302
1868250N31323 1868 12 NA NA NOT_NAMED 1868-09-08 03:00:00 TS 33.0000 -40.8500 main 1840 1821 _____________P -1 33.0000 -40.8500 TS 45 3 308
1868250N31323 1868 12 NA NA NOT_NAMED 1868-09-08 06:00:00 TS 33.1000 -41.0000 main 1821 1816 _____________O -1 33.1000 -41.0000 TS 45 3 301
1868250N31323 1868 12 NA NA NOT_NAMED 1868-09-08 09:00:00 TS 33.1500 -41.1501 main 1812 1797 _____________P -1 33.1500 -41.1501 TS 45 3 292
1868250N31323 1868 12 NA NA NOT_NAMED 1868-09-08 12:00:00 TS 33.2000 -41.3000 main 1797 1783 _____________O -1 33.2000 -41.3000 TS 45 3 301
1868250N31323 1868 12 NA NA NOT_NAMED 1868-09-08 15:00:00 TS 33.3000 -41.4500 main 1783 1764 _____________P -1 33.3000 -41.4500 TS 45 3 308
1868250N31323 1868 12 NA NA NOT_NAMED 1868-09-08 18:00:00 TS 33.4000 -41.6000 main 1764 1759 _____________O -1 33.4000 -41.6000 TS 45 3 302
1868250N31323 1868 12 NA NA NOT_NAMED 1868-09-08 21:00:00 TS 33.4500 -41.7426 main 1759 1740 _____________P -1 33.4500 -41.7426 TS 45 3 292
1868250N31323 1868 12 NA NA NOT_NAMED 1868-09-09 00:00:00 TS 33.5000 -41.9000 main 1740 1722 _____________O -1 33.5000 -41.9000 TS 45 3 297
1868250N31323 1868 12 NA NA NOT_NAMED 1868-09-09 03:00:00 TS 33.6000 -42.0999 main 1722 1703 _____________P -1 33.6000 -42.0999 TS 45 4 301
1868250N31323 1868 12 NA NA NOT_NAMED 1868-09-09 06:00:00 TS 33.7000 -42.3000 main 1703 1689 _____________O -1 33.7000 -42.3000 TS 45 3 298
1868250N31323 1868 12 NA NA NOT_NAMED 1868-09-09 09:00:00 TS 33.7575 -42.4576 main 1684 1680 _____________P -1 33.7575 -42.4576 TS 45 3 292
1868250N31323 1868 12 NA NA NOT_NAMED 1868-09-09 12:00:00 TS 33.8000 -42.6000 main 1680 1675 _____________O -1 33.8000 -42.6000 TS 45 3 291
1868250N31323 1868 12 NA NA NOT_NAMED 1868-09-09 15:00:00 TS 33.8500 -42.7500 main 1671 1657 _____________P -1 33.8500 -42.7500 TS 47 3 292
1868250N31323 1868 12 NA NA NOT_NAMED 1868-09-09 18:00:00 TS 33.9000 -42.9000 main 1657 1652 _____________O -1 33.9000 -42.9000 TS 50 3 292
1868250N31323 1868 12 NA NA NOT_NAMED 1868-09-09 21:00:00 TS 33.9500 -43.0425 main 1652 1634 _____________P -1 33.9500 -43.0425 TS 50 3 292
1868250N31323 1868 12 NA NA NOT_NAMED 1868-09-10 00:00:00 TS 34.0000 -43.2000 main 1634 1625 _____________O -1 34.0000 -43.2000 TS 50 3 289
1868250N31323 1868 12 NA NA NOT_NAMED 1868-09-10 03:00:00 TS 34.0500 -43.3925 main 1615 1607 _____________P -1 34.0500 -43.3925 TS 50 3 287
1868250N31323 1868 12 NA NA NOT_NAMED 1868-09-10 06:00:00 TS 34.1000 -43.6000 main 1607 1599 _____________O -1 34.1000 -43.6000 TS 50 4 287
1868250N31323 1868 12 NA NA NOT_NAMED 1868-09-10 09:00:00 TS 34.1500 -43.8000 main 1599 1580 _____________P -1 34.1500 -43.8000 TS 50 3 287
1868250N31323 1868 12 NA NA NOT_NAMED 1868-09-10 12:00:00 TS 34.2000 -44.0000 main 1580 1572 _____________O -1 34.2000 -44.0000 TS 50 4 287
1868250N31323 1868 12 NA NA NOT_NAMED 1868-09-10 15:00:00 TS 34.2500 -44.2075 main 1562 1554 _____________P -1 34.2500 -44.2075 TS 52 3 287
1868250N31323 1868 12 NA NA NOT_NAMED 1868-09-10 18:00:00 TS 34.3000 -44.4000 main 1554 1550 _____________O -1 34.3000 -44.4000 TS 55 3 290
1868250N31323 1868 12 NA NA NOT_NAMED 1868-09-10 21:00:00 TS 34.3499 -44.5500 main 1546 1532 _____________P -1 34.3499 -44.5500 TS 55 3 292
1868250N31323 1868 12 NA NA NOT_NAMED 1868-09-11 00:00:00 TS 34.4000 -44.7000 main 1532 1525 _____________O -1 34.4000 -44.7000 TS 55 3 290
1868250N31323 1868 12 NA NA NOT_NAMED 1868-09-11 03:00:00 TS 34.4500 -44.8925 main 1515 1507 _____________P -1 34.4500 -44.8925 TS 55 3 287
1868250N31323 1868 12 NA NA NOT_NAMED 1868-09-11 06:00:00 TS 34.5000 -45.1000 main 1507 1489 _____________O -1 34.5000 -45.1000 TS 55 4 288
1868250N31323 1868 12 NA NA NOT_NAMED 1868-09-11 09:00:00 TS 34.5575 -45.3000 main 1489 1482 _____________P -1 34.5575 -45.3000 TS 55 3 287
1868250N31323 1868 12 NA NA NOT_NAMED 1868-09-11 12:00:00 TS 34.6000 -45.5000 main 1482 1475 _____________O -1 34.6000 -45.5000 TS 55 3 277
1868250N31323 1868 12 NA NA NOT_NAMED 1868-09-11 15:00:00 TS 34.6000 -45.7001 main 1475 1468 _____________P -1 34.6000 -45.7001 TS 57 3 270
1868250N31323 1868 12 NA NA NOT_NAMED 1868-09-11 18:00:00 TS 34.6000 -45.9000 main 1468 1451 _____________O -1 34.6000 -45.9000 TS 60 3 280
1868250N31323 1868 12 NA NA NOT_NAMED 1868-09-11 21:00:00 TS 34.6575 -46.0999 main 1451 1444 _____________P -1 34.6575 -46.0999 TS 62 3 287
1868250N31323 1868 12 NA NA NOT_NAMED 1868-09-12 00:00:00 TS 34.7000 -46.3000 main 1444 1437 _____________O -1 34.7000 -46.3000 HU 65 3 273
1868250N31323 1868 12 NA NA NOT_NAMED 1868-09-12 03:00:00 TS 34.6724 -46.4925 main 1437 1434 _____________P -1 34.6724 -46.4925 HU 65 3 253
1868250N31323 1868 12 NA NA NOT_NAMED 1868-09-12 06:00:00 TS 34.6000 -46.7000 main 1441 1438 _____________O -1 34.6000 -46.7000 HU 65 4 246
1868250N31323 1868 12 NA NA NOT_NAMED 1868-09-12 09:00:00 TS 34.5075 -46.9501 main 1442 1439 _____________P -1 34.5075 -46.9501 HU 70 5 244
1868250N31323 1868 12 NA NA NOT_NAMED 1868-09-12 12:00:00 TS 34.4000 -47.2000 main 1447 1444 _____________O -1 34.4000 -47.2000 HU 75 4 240
1868250N31323 1868 12 NA NA NOT_NAMED 1868-09-12 15:00:00 TS 34.2924 -47.4075 main 1452 1449 _____________P -1 34.2924 -47.4075 HU 75 4 239
1868250N31323 1868 12 NA NA NOT_NAMED 1868-09-12 18:00:00 TS 34.2000 -47.6000 main 1457 1452 _____________O -1 34.2000 -47.6000 HU 75 4 247
1868250N31323 1868 12 NA NA NOT_NAMED 1868-09-12 21:00:00 TS 34.1575 -47.7998 main 1452 1452 _____________P -1 34.1575 -47.7998 HU 75 3 253
1868250N31323 1868 12 NA NA NOT_NAMED 1868-09-13 00:00:00 TS 34.1000 -48.0000 main 1457 1455 _____________O -1 34.1000 -48.0000 HU 75 4 239
1868250N31323 1868 12 NA NA NOT_NAMED 1868-09-13 03:00:00 TS 33.9575 -48.2076 main 1463 1463 _____________P -1 33.9575 -48.2076 HU 75 4 228
1868250N31323 1868 12 NA NA NOT_NAMED 1868-09-13 06:00:00 TS 33.8000 -48.4000 main 1480 1478 _____________O -1 33.8000 -48.4000 HU 75 4 228
1868250N31323 1868 12 NA NA NOT_NAMED 1868-09-13 09:00:00 TS 33.6999 -48.5498 main 1489 1486 _____________P -1 33.6999 -48.5498 HU 75 3 232
1868250N31323 1868 12 NA NA NOT_NAMED 1868-09-13 12:00:00 TS 33.6000 -48.7000 main 1495 1493 _____________O -1 33.6000 -48.7000 HU 75 4 229
1868250N31323 1868 12 NA NA NOT_NAMED 1868-09-13 15:00:00 TS 33.4500 -48.9001 main 1502 1502 _____________P -1 33.4500 -48.9001 HU 75 4 228
1868250N31323 1868 12 NA NA NOT_NAMED 1868-09-13 18:00:00 TS 33.3000 -49.1000 main 1520 1518 _____________O -1 33.3000 -49.1000 HU 75 4 230
1868250N31323 1868 12 NA NA NOT_NAMED 1868-09-13 21:00:00 TS 33.1999 -49.2498 main 1529 1527 _____________P -1 33.1999 -49.2498 HU 75 3 232
1868250N31323 1868 12 NA NA NOT_NAMED 1868-09-14 00:00:00 TS 33.1000 -49.4000 main 1536 1534 _____________O -1 33.1000 -49.4000 HU 75 4 230
1868250N31323 1868 12 NA NA NOT_NAMED 1868-09-14 03:00:00 TS 32.9575 -49.5925 main 1543 1543 _____________P -1 32.9575 -49.5925 HU 75 5 228
1868250N31323 1868 12 NA NA NOT_NAMED 1868-09-14 06:00:00 TS 32.8000 -49.8000 main 1562 1561 _____________O -1 32.8000 -49.8000 HU 75 5 229
1868250N31323 1868 12 NA NA NOT_NAMED 1868-09-14 09:00:00 TS 32.6575 -49.9999 main 1570 1570 _____________P -1 32.6575 -49.9999 HU 75 5 228
1868250N31323 1868 12 NA NA NOT_NAMED 1868-09-14 12:00:00 TS 32.5000 -50.2000 main 1589 1589 _____________O -1 32.5000 -50.2000 HU 75 5 223
1868250N31323 1868 12 NA NA NOT_NAMED 1868-09-14 15:00:00 TS 32.3000 -50.4000 main 1609 1609 _____________P -1 32.3000 -50.4000 HU 77 5 220
1868250N31323 1868 12 NA NA NOT_NAMED 1868-09-14 18:00:00 TS 32.1000 -50.6000 main 1629 1629 _____________O -1 32.1000 -50.6000 HU 80 5 221
1868250N31323 1868 12 NA NA NOT_NAMED 1868-09-14 21:00:00 TS 31.9423 -50.7697 main 1649 1647 _____________P -1 31.9423 -50.7697 HU 80 5 229
1868250N31323 1868 12 NA NA NOT_NAMED 1868-09-15 00:00:00 TS 31.8000 -51.0000 main 1658 1657 _____________O -1 31.8000 -51.0000 HU 80 6 241
1868250N31323 1868 12 NA NA NOT_NAMED 1868-09-15 03:00:00 TS 31.6502 -51.3776 main 1665 1665 _____________P -1 31.6502 -51.3776 HU 80 7 246
1868250N31323 1868 12 NA NA NOT_NAMED 1868-09-15 06:00:00 TS 31.5000 -51.8000 main 1685 1684 _____________O -1 31.5000 -51.8000 HU 80 7 243
1868250N31323 1868 12 NA NA NOT_NAMED 1868-09-15 09:00:00 TS 31.3123 -52.1578 main 1705 1704 _____________P -1 31.3123 -52.1578 HU 80 7 243
1868250N31323 1868 12 NA NA NOT_NAMED 1868-09-15 12:00:00 TS 31.2000 -52.5000 main 1715 1703 _____________O -1 31.2000 -52.5000 HU 80 6 265
1868250N31323 1868 12 NA NA NOT_NAMED 1868-09-15 15:00:00 TS 31.2624 -52.8497 main 1703 1681 _____________P -1 31.2624 -52.8497 HU 80 6 288
1868250N31323 1868 12 NA NA NOT_NAMED 1868-09-15 18:00:00 TS 31.4000 -53.2000 main 1681 1667 _____________O -1 31.4000 -53.2000 HU 80 7 286
1868250N31323 1868 12 NA NA NOT_NAMED 1868-09-15 21:00:00 TS 31.4476 -53.5877 main 1667 1636 _____________P -1 31.4476 -53.5877 HU 80 6 288
1868250N31323 1868 12 NA NA NOT_NAMED 1868-09-16 00:00:00 TS 31.6000 -53.9000 main 1636 1588 _____________O -1 31.6000 -53.9000 HU 80 7 325
1868250N31323 1868 12 NA NA NOT_NAMED 1868-09-16 03:00:00 TS 32.0273 -54.0673 main 1588 1536 _____________P -1 32.0273 -54.0673 HU 80 9 350
1868250N31323 1868 12 NA NA NOT_NAMED 1868-09-16 06:00:00 TS 32.5000 -54.1000 main 1536 1504 _____________O -1 32.5000 -54.1000 HU 80 8 0
1868250N31323 1868 12 NA NA NOT_NAMED 1868-09-16 09:00:00 TS 32.7946 -54.0974 main 1504 1487 _____________P -1 32.7946 -54.0974 HU 77 5 19
1868250N31323 1868 12 NA NA NOT_NAMED 1868-09-16 12:00:00 TS 33.0000 -53.9000 main 1491 1484 _____________O -1 33.0000 -53.9000 HU 75 7 56
1868250N31323 1868 12 NA NA NOT_NAMED 1868-09-16 15:00:00 TS 33.1729 -53.4177 main 1488 1480 _____________P -1 33.1729 -53.4177 HU 75 10 72
1868250N31323 1868 12 NA NA NOT_NAMED 1868-09-16 18:00:00 TS 33.3000 -52.8000 main 1480 1470 _____________O -1 33.3000 -52.8000 HU 75 11 78
1868250N31323 1868 12 NA NA NOT_NAMED 1868-09-16 21:00:00 TS 33.4003 -52.1899 main 1471 1461 _____________P -1 33.4003 -52.1899 HU 75 9 78
1868250N31323 1868 12 NA NA NOT_NAMED 1868-09-17 00:00:00 TS 33.5000 -51.7000 main 1463 1452 _____________O -1 33.5000 -51.7000 HU 75 6 68
1868250N31323 1868 12 NA NA NOT_NAMED 1868-09-17 03:00:00 TS 33.6421 -51.4823 main 1453 1432 _____________P -1 33.6421 -51.4823 HU 75 4 40
1868250N31323 1868 12 NA NA NOT_NAMED 1868-09-17 06:00:00 TS 33.8000 -51.4000 main 1432 1421 _____________O -1 33.8000 -51.4000 HU 75 3 29
1868250N31323 1868 12 NA NA NOT_NAMED 1868-09-17 09:00:00 TS 33.9124 -51.3071 main 1422 1401 _____________P -1 33.9124 -51.3071 HU 75 3 29
1868250N31323 1868 12 NA NA NOT_NAMED 1868-09-17 12:00:00 TS 34.1000 -51.2000 main 1401 1368 _____________O -1 34.1000 -51.2000 HU 75 6 23
1868250N31323 1868 12 NA NA NOT_NAMED 1868-09-17 15:00:00 TS 34.4475 -51.0298 main 1370 1317 _____________P -1 34.4475 -51.0298 HU 72 9 23
1868250N31323 1868 12 NA NA NOT_NAMED 1868-09-17 18:00:00 TS 34.9000 -50.8000 main 1317 1275 _____________O -1 34.9000 -50.8000 HU 70 10 24
1868250N31323 1868 12 NA NA NOT_NAMED 1868-09-17 21:00:00 TS 35.3171 -50.5578 main 1275 1216 _____________P -1 35.3171 -50.5578 HU 70 11 26
1868250N31323 1868 12 NA NA NOT_NAMED 1868-09-18 00:00:00 TS 35.9000 -50.2000 main 1216 1138 _____________O -1 35.9000 -50.2000 HU 70 16 27
1868250N31323 1868 12 NA NA NOT_NAMED 1868-09-18 03:00:00 TS 36.7071 -49.6938 main 1138 1045 _____________P -1 36.7071 -49.6938 HU 70 21 27
1868250N31323 1868 12 NA NA NOT_NAMED 1868-09-18 06:00:00 TS 37.8000 -49.0000 main 1037 927 _____________O -1 37.8000 -49.0000 HU 70 28 26
1868250N31323 1868 12 NA NA NOT_NAMED 1868-09-18 09:00:00 TS 39.1898 -48.1325 main 920 822 _____________P -1 39.1898 -48.1325 HU 70 33 27
1868250N31323 1868 12 NA NA NOT_NAMED 1868-09-18 12:00:00 TS 40.7000 -47.1000 main 817 759 _____________O -1 40.7000 -47.1000 HU 70 33 29
1868250N31323 1868 12 NA NA NOT_NAMED 1868-09-18 15:00:00 TS 42.0942 -45.9921 main 758 742 _____________P -1 42.0942 -45.9921 HU 67 32 32
1868250N31323 1868 12 NA NA NOT_NAMED 1868-09-18 18:00:00 TS 43.4000 -44.8000 main 743 743 _____________O -1 43.4000 -44.8000 HU 65 31 36
1868250N31323 1868 12 NA NA NOT_NAMED 1868-09-18 21:00:00 TS 44.5958 -43.4967 main 769 769 _____________P -1 44.5958 -43.4967 HU 65 29 38
1868250N31323 1868 12 NA NA NOT_NAMED 1868-09-19 00:00:00 TS 45.7000 -42.3000 main 808 808 _____________O -1 45.7000 -42.3000 HU 65 26 33
1868250N31323 1868 12 NA NA NOT_NAMED 1868-09-19 03:00:00 TS 46.7534 -41.4947 main 838 838 _____________P -1 46.7534 -41.4947 HU 60 24 28
1868250N31323 1868 12 NA NA NOT_NAMED 1868-09-19 06:00:00 TS 47.8000 -40.7000 main 887 887 _____________O -1 47.8000 -40.7000 TS 55 25 32
1868250N31323 1868 12 NA NA NOT_NAMED 1868-09-19 09:00:00 TS 48.8909 -39.5415 main 977 977 _____________P -1 48.8909 -39.5415 TS 50 28 38
1868250N31323 1868 12 NA NA NOT_NAMED 1868-09-19 12:00:00 ET 50.0000 -38.1000 main 1085 _____________O -1 50.0000 -38.1000 EX 45 29 40

About IBTrACS Database

This database is a web-friendly format of International Best Track Archive for Climate Stewardship (IBTrACS), a global best track data archive curated by NOAA dating back to 1842.

Updated: 2021-11-26